createdAt,value
2022-12-16T00:01:40.948Z,69.92
2022-12-16T00:04:07.469Z,69.72
2022-12-16T00:06:35.112Z,69.70
2022-12-16T00:09:02.140Z,70.00
2022-12-16T00:11:31.930Z,69.69
2022-12-16T00:13:58.413Z,69.37
2022-12-16T00:16:24.973Z,69.28
2022-12-16T00:18:51.884Z,69.74
2022-12-16T00:21:19.358Z,69.84
2022-12-16T00:23:45.883Z,69.42
2022-12-16T00:26:13.163Z,69.17
2022-12-16T00:28:40.579Z,69.81
2022-12-16T00:31:07.685Z,69.37
2022-12-16T00:33:34.750Z,69.83
2022-12-16T00:36:01.481Z,69.46
2022-12-16T00:38:27.981Z,69.78
2022-12-16T00:40:54.546Z,69.32
2022-12-16T00:43:21.896Z,69.11
2022-12-16T00:45:48.705Z,69.42
2022-12-16T00:48:15.735Z,68.88
2022-12-16T00:50:47.263Z,69.01
2022-12-16T00:53:13.716Z,68.30
2022-12-16T00:55:40.186Z,67.94
2022-12-16T00:58:06.600Z,67.96
2022-12-16T01:00:33.138Z,68.10
2022-12-16T01:02:59.696Z,68.66
2022-12-16T01:05:28.845Z,68.41
2022-12-16T01:07:55.839Z,68.32
2022-12-16T01:10:24.466Z,68.22
2022-12-16T01:12:51.334Z,68.92
2022-12-16T01:15:18.734Z,67.97
2022-12-16T01:17:45.492Z,67.94
2022-12-16T01:20:12.173Z,68.46
2022-12-16T01:22:38.686Z,68.08
2022-12-16T01:25:05.705Z,68.00
2022-12-16T01:27:32.171Z,67.96
2022-12-16T01:29:58.721Z,67.87
2022-12-16T01:32:25.700Z,67.68
2022-12-16T01:34:55.179Z,68.30
2022-12-16T01:37:21.992Z,68.07
2022-12-16T01:39:49.065Z,68.48
2022-12-16T01:42:18.891Z,67.96
2022-12-16T01:44:48.424Z,67.71
2022-12-16T01:47:35.512Z,68.21
2022-12-16T01:50:11.648Z,68.51
2022-12-16T01:52:44.054Z,68.33
2022-12-16T01:55:20.652Z,69.05
2022-12-16T01:57:59.281Z,68.80
2022-12-16T02:00:25.874Z,68.71
2022-12-16T02:02:54.065Z,68.79
2022-12-16T02:09:11.639Z,69.00
2022-12-16T02:12:12.107Z,68.28
2022-12-16T02:14:57.146Z,68.59
2022-12-16T02:17:41.727Z,69.19
2022-12-16T02:20:23.441Z,68.98
2022-12-16T02:22:59.820Z,69.23
2022-12-16T02:25:29.150Z,69.01
2022-12-16T02:28:02.261Z,69.33
2022-12-16T02:30:35.445Z,69.22
2022-12-16T02:33:26.205Z,69.23
2022-12-16T02:35:55.984Z,68.68
2022-12-16T02:38:39.170Z,68.86
2022-12-16T02:41:20.999Z,68.59
2022-12-16T02:43:52.181Z,68.22
2022-12-16T02:46:21.141Z,68.88
2022-12-16T02:48:47.702Z,68.85
2022-12-16T02:51:14.921Z,69.04
2022-12-16T02:53:43.338Z,68.90
2022-12-16T02:56:18.722Z,68.56
2022-12-16T02:59:09.663Z,68.77
2022-12-16T03:01:55.690Z,68.43
2022-12-16T03:04:31.615Z,68.95
2022-12-16T03:07:00.740Z,68.78
2022-12-16T03:09:32.107Z,68.60
2022-12-16T03:12:01.105Z,68.27
2022-12-16T03:14:30.801Z,68.17
2022-12-16T03:16:58.126Z,68.38
2022-12-16T03:19:26.969Z,68.55
2022-12-16T03:21:59.230Z,68.48
2022-12-16T03:24:26.199Z,68.44
2022-12-16T03:27:07.910Z,68.71
2022-12-16T03:30:03.288Z,68.39
2022-12-16T03:32:39.150Z,68.74
2022-12-16T03:35:17.752Z,68.38
2022-12-16T03:37:46.520Z,68.36
2022-12-16T03:40:13.914Z,68.19
2022-12-16T03:42:42.253Z,68.24
2022-12-16T03:45:14.070Z,68.31
2022-12-16T03:47:40.503Z,68.36
2022-12-16T03:50:07.287Z,68.10
2022-12-16T03:52:33.908Z,68.40
2022-12-16T03:55:01.548Z,68.60
2022-12-16T03:57:27.946Z,68.51
2022-12-16T03:59:54.398Z,68.27
2022-12-16T04:02:20.943Z,68.22
2022-12-16T04:04:47.527Z,68.22
2022-12-16T04:07:24.450Z,68.58
2022-12-16T04:09:52.493Z,68.72
2022-12-16T04:12:38.390Z,68.79
2022-12-16T04:15:24.445Z,68.97
2022-12-16T04:18:09.277Z,68.60
2022-12-16T04:20:58.142Z,68.88
2022-12-16T04:23:46.522Z,68.85
2022-12-16T04:26:13.104Z,68.86
2022-12-16T04:28:39.852Z,68.82
2022-12-16T04:31:06.666Z,69.05
2022-12-16T04:33:51.861Z,68.92
2022-12-16T04:36:37.104Z,68.76
2022-12-16T04:39:22.255Z,68.59
2022-12-16T04:42:11.600Z,69.13
2022-12-16T04:44:57.034Z,69.02
2022-12-16T04:47:42.149Z,68.88
2022-12-16T04:50:27.420Z,68.47
2022-12-16T04:53:12.409Z,69.25
2022-12-16T04:56:03.642Z,68.55
2022-12-16T04:58:49.209Z,68.46
2022-12-16T05:01:34.179Z,68.46
2022-12-16T05:04:19.229Z,68.87
2022-12-16T05:07:03.949Z,68.18
2022-12-16T05:09:48.967Z,68.88
2022-12-16T05:12:33.931Z,68.64
2022-12-16T05:15:18.895Z,68.77
2022-12-16T05:18:03.668Z,68.96
2022-12-16T05:20:48.708Z,68.46
2022-12-16T05:23:34.085Z,68.29
2022-12-16T05:26:19.196Z,68.21
2022-12-16T05:29:04.240Z,68.29
2022-12-16T05:31:49.231Z,68.24
2022-12-16T05:34:34.237Z,68.32
2022-12-16T05:37:19.346Z,68.45
2022-12-16T05:40:04.422Z,68.27
2022-12-16T05:42:49.697Z,68.67
2022-12-16T05:45:34.486Z,68.64
2022-12-16T05:48:19.422Z,68.41
2022-12-16T05:51:04.259Z,68.21
2022-12-16T05:53:49.347Z,68.32
2022-12-16T05:56:34.466Z,68.14
2022-12-16T05:59:19.553Z,68.14
2022-12-16T06:02:04.451Z,68.50
2022-12-16T06:04:49.219Z,68.16
2022-12-16T06:07:34.269Z,68.07
2022-12-16T06:10:19.338Z,68.22
2022-12-16T06:13:05.727Z,68.09
2022-12-16T06:15:50.896Z,67.97
2022-12-16T06:18:35.903Z,68.24
2022-12-16T06:21:20.734Z,68.00
2022-12-16T08:47:10.688Z,66.84
2022-12-16T08:50:05.598Z,67.03
2022-12-16T10:14:20.195Z,59.27
2022-12-16T10:17:18.023Z,59.27
2022-12-16T11:21:44.433Z,59.45
